CheckWX is a tool to help pilots better visualize weather data.  It is not intended as a substitute for an official pre-flight weather briefing.

21:46:00 UTC

CYKG METAR
Kangiqsujuaq (Wakeham Bay) Airport
Kangiqsujuaq, Canada
Current

46 mins ago

CYKG 232100Z 22014G20KT 15SM FEW025 01/M06 A2993 RMK SC2 SNW CVR/MED PACK/LAST STFD OBS/NXT OBS 241200 UTC SLP150
Observed
May-23 @ 21:00 UTC
Wind
  • 220° at 14 KTS
  • Gusting to 20 KTS
Visibility
15 SM
Flight Rules
VFR
Cloud Levels
  • Few at 2,500' AGL
Temperature
C / 34°F
Dewpoint
-6°C / 21°F
Humidity
60%
Altimeter
29.93" Hg
Pressure
1013.52 hPa
Previous

2 hours ago

CYKG 232000Z 24016KT 15SM FEW030 01/M06 A2994 RMK SC2 SLP151
Observed
May-23 @ 20:00 UTC
Wind
  • 240° at 16 KTS
Visibility
15 SM
Flight Rules
VFR
Cloud Levels
  • Few at 3,000' AGL
Temperature
C / 34°F
Dewpoint
-6°C / 21°F
Humidity
60%
Altimeter
29.94" Hg
Pressure
1013.92 hPa
Previous

3 hours ago

CYKG 231900Z 22016G21KT 15SM FEW028 01/M06 A2994 RMK SC2 SLP151
Observed
May-23 @ 19:00 UTC
Wind
  • 220° at 16 KTS
  • Gusting to 21 KTS
Visibility
15 SM
Flight Rules
VFR
Cloud Levels
  • Few at 2,800' AGL
Temperature
C / 34°F
Dewpoint
-6°C / 21°F
Humidity
60%
Altimeter
29.94" Hg
Pressure
1013.92 hPa